sensor_id;sensor_type;location;lat;lon;timestamp;temperature;humidity
22996;DHT22;11664;49.774;8.650;2023-03-24T00:01:44;13.90;99.90
22996;DHT22;11664;49.774;8.650;2023-03-24T00:04:10;13.90;99.90
22996;DHT22;11664;49.774;8.650;2023-03-24T00:06:36;13.90;99.90
22996;DHT22;11664;49.774;8.650;2023-03-24T00:09:04;13.90;99.90
22996;DHT22;11664;49.774;8.650;2023-03-24T00:11:31;13.80;99.90
22996;DHT22;11664;49.774;8.650;2023-03-24T00:14:02;13.80;99.90
22996;DHT22;11664;49.774;8.650;2023-03-24T00:16:50;13.80;99.90
22996;DHT22;11664;49.774;8.650;2023-03-24T00:19:20;13.80;99.90
22996;DHT22;11664;49.774;8.650;2023-03-24T00:21:46;13.80;99.90
22996;DHT22;11664;49.774;8.650;2023-03-24T00:24:12;13.80;99.90
22996;DHT22;11664;49.774;8.650;2023-03-24T00:26:39;13.80;99.90
22996;DHT22;11664;49.774;8.650;2023-03-24T00:29:09;13.80;99.90
22996;DHT22;11664;49.774;8.650;2023-03-24T00:31:47;13.80;99.90
22996;DHT22;11664;49.774;8.650;2023-03-24T00:34:22;13.80;99.90
22996;DHT22;11664;49.774;8.650;2023-03-24T00:36:49;13.80;99.90
22996;DHT22;11664;49.774;8.650;2023-03-24T00:39:19;13.80;99.90
22996;DHT22;11664;49.774;8.650;2023-03-24T00:41:46;13.80;99.90
22996;DHT22;11664;49.774;8.650;2023-03-24T00:44:16;13.80;99.90
22996;DHT22;11664;49.774;8.650;2023-03-24T00:47:06;13.80;99.90
22996;DHT22;11664;49.774;8.650;2023-03-24T00:49:40;13.80;99.90
22996;DHT22;11664;49.774;8.650;2023-03-24T00:52:23;13.80;99.90
22996;DHT22;11664;49.774;8.650;2023-03-24T00:54:51;13.80;99.90
22996;DHT22;11664;49.774;8.650;2023-03-24T00:57:29;13.80;99.90
22996;DHT22;11664;49.774;8.650;2023-03-24T01:00:00;13.70;99.90
22996;DHT22;11664;49.774;8.650;2023-03-24T01:02:43;13.70;99.90
22996;DHT22;11664;49.774;8.650;2023-03-24T01:05:11;13.70;99.90
22996;DHT22;11664;49.774;8.650;2023-03-24T01:07:46;13.70;99.90
22996;DHT22;11664;49.774;8.650;2023-03-24T01:10:25;13.70;99.90
22996;DHT22;11664;49.774;8.650;2023-03-24T01:13:07;13.70;99.90
22996;DHT22;11664;49.774;8.650;2023-03-24T01:15:35;13.70;99.90
22996;DHT22;11664;49.774;8.650;2023-03-24T01:18:12;13.70;99.90
22996;DHT22;11664;49.774;8.650;2023-03-24T01:20:39;13.70;99.90
22996;DHT22;11664;49.774;8.650;2023-03-24T01:23:10;13.70;99.90
22996;DHT22;11664;49.774;8.650;2023-03-24T01:25:36;13.70;99.90
22996;DHT22;11664;49.774;8.650;2023-03-24T01:28:02;13.70;99.90
22996;DHT22;11664;49.774;8.650;2023-03-24T01:30:28;13.70;99.90
22996;DHT22;11664;49.774;8.650;2023-03-24T01:33:00;13.70;99.90
22996;DHT22;11664;49.774;8.650;2023-03-24T01:35:26;13.70;99.90
22996;DHT22;11664;49.774;8.650;2023-03-24T01:37:52;13.70;99.90
22996;DHT22;11664;49.774;8.650;2023-03-24T01:40:21;13.70;99.90
22996;DHT22;11664;49.774;8.650;2023-03-24T01:42:57;13.80;99.90
22996;DHT22;11664;49.774;8.650;2023-03-24T01:48:51;13.90;99.90
22996;DHT22;11664;49.774;8.650;2023-03-24T01:51:44;14.00;99.90
22996;DHT22;11664;49.774;8.650;2023-03-24T01:54:32;14.00;99.90
22996;DHT22;11664;49.774;8.650;2023-03-24T01:57:13;14.10;99.90
22996;DHT22;11664;49.774;8.650;2023-03-24T01:59:43;14.10;99.90
22996;DHT22;11664;49.774;8.650;2023-03-24T02:02:16;14.10;99.90
22996;DHT22;11664;49.774;8.650;2023-03-24T02:04:58;14.20;99.90
22996;DHT22;11664;49.774;8.650;2023-03-24T02:07:55;14.20;99.90
22996;DHT22;11664;49.774;8.650;2023-03-24T02:10:29;14.30;99.90
22996;DHT22;11664;49.774;8.650;2023-03-24T02:12:55;14.30;99.90
22996;DHT22;11664;49.774;8.650;2023-03-24T02:15:36;14.30;99.90
22996;DHT22;11664;49.774;8.650;2023-03-24T02:18:12;14.40;99.90
22996;DHT22;11664;49.774;8.650;2023-03-24T02:27:22;14.50;99.90
22996;DHT22;11664;49.774;8.650;2023-03-24T02:30:04;14.60;99.90
22996;DHT22;11664;49.774;8.650;2023-03-24T02:38:38;14.70;99.90
22996;DHT22;11664;49.774;8.650;2023-03-24T02:53:00;15.10;99.90
22996;DHT22;11664;49.774;8.650;2023-03-24T02:55:34;15.10;99.90
22996;DHT22;11664;49.774;8.650;2023-03-24T02:58:07;15.10;99.90
22996;DHT22;11664;49.774;8.650;2023-03-24T03:03:13;15.20;99.90
22996;DHT22;11664;49.774;8.650;2023-03-24T03:06:02;15.20;99.90
22996;DHT22;11664;49.774;8.650;2023-03-24T03:08:33;15.30;99.90
22996;DHT22;11664;49.774;8.650;2023-03-24T03:11:02;15.30;99.90
22996;DHT22;11664;49.774;8.650;2023-03-24T03:13:51;15.40;99.90
22996;DHT22;11664;49.774;8.650;2023-03-24T03:16:22;15.50;99.90
22996;DHT22;11664;49.774;8.650;2023-03-24T03:18:58;15.50;99.90
22996;DHT22;11664;49.774;8.650;2023-03-24T03:21:41;15.50;99.90
22996;DHT22;11664;49.774;8.650;2023-03-24T03:27:26;15.50;99.90
22996;DHT22;11664;49.774;8.650;2023-03-24T03:30:03;15.50;99.90
22996;DHT22;11664;49.774;8.650;2023-03-24T03:32:36;15.50;99.90
22996;DHT22;11664;49.774;8.650;2023-03-24T03:35:23;15.50;99.90
22996;DHT22;11664;49.774;8.650;2023-03-24T03:40:27;15.50;99.90
22996;DHT22;11664;49.774;8.650;2023-03-24T03:43:03;15.40;99.90
22996;DHT22;11664;49.774;8.650;2023-03-24T03:45:30;15.40;99.90
22996;DHT22;11664;49.774;8.650;2023-03-24T03:47:57;15.40;99.90
22996;DHT22;11664;49.774;8.650;2023-03-24T03:50:22;15.40;99.90
22996;DHT22;11664;49.774;8.650;2023-03-24T03:52:51;15.40;99.90
22996;DHT22;11664;49.774;8.650;2023-03-24T03:55:17;15.40;99.90
22996;DHT22;11664;49.774;8.650;2023-03-24T03:57:43;15.30;99.90
22996;DHT22;11664;49.774;8.650;2023-03-24T04:00:14;15.30;99.90
22996;DHT22;11664;49.774;8.650;2023-03-24T04:05:47;15.20;99.90
22996;DHT22;11664;49.774;8.650;2023-03-24T04:20:23;15.00;99.90
22996;DHT22;11664;49.774;8.650;2023-03-24T04:31:54;15.20;99.90
22996;DHT22;11664;49.774;8.650;2023-03-24T04:34:31;15.10;99.90
22996;DHT22;11664;49.774;8.650;2023-03-24T04:37:24;15.10;99.90
22996;DHT22;11664;49.774;8.650;2023-03-24T04:39:53;15.10;99.90
22996;DHT22;11664;49.774;8.650;2023-03-24T04:42:45;15.10;99.90
22996;DHT22;11664;49.774;8.650;2023-03-24T04:45:13;15.00;99.90
22996;DHT22;11664;49.774;8.650;2023-03-24T04:47:51;15.00;99.90
22996;DHT22;11664;49.774;8.650;2023-03-24T04:51:02;15.00;99.90
22996;DHT22;11664;49.774;8.650;2023-03-24T04:53:28;14.90;99.90
22996;DHT22;11664;49.774;8.650;2023-03-24T04:56:34;14.90;99.90
22996;DHT22;11664;49.774;8.650;2023-03-24T04:59:12;14.90;99.90
22996;DHT22;11664;49.774;8.650;2023-03-24T05:01:50;14.80;99.90
22996;DHT22;11664;49.774;8.650;2023-03-24T05:04:24;14.70;99.90
22996;DHT22;11664;49.774;8.650;2023-03-24T05:06:50;14.60;99.90
22996;DHT22;11664;49.774;8.650;2023-03-24T05:09:17;14.50;99.90
22996;DHT22;11664;49.774;8.650;2023-03-24T05:12:01;14.40;99.90
22996;DHT22;11664;49.774;8.650;2023-03-24T05:14:35;14.30;99.90
22996;DHT22;11664;49.774;8.650;2023-03-24T05:17:04;14.20;99.90
22996;DHT22;11664;49.774;8.650;2023-03-24T05:19:30;14.10;99.90
22996;DHT22;11664;49.774;8.650;2023-03-24T05:21:55;14.00;99.90
22996;DHT22;11664;49.774;8.650;2023-03-24T05:24:24;13.90;99.90
22996;DHT22;11664;49.774;8.650;2023-03-24T05:26:59;13.80;99.90
22996;DHT22;11664;49.774;8.650;2023-03-24T05:29:25;13.70;99.90
22996;DHT22;11664;49.774;8.650;2023-03-24T05:32:05;13.60;99.90
22996;DHT22;11664;49.774;8.650;2023-03-24T05:34:31;13.50;99.90
22996;DHT22;11664;49.774;8.650;2023-03-24T05:37:02;13.50;99.90
22996;DHT22;11664;49.774;8.650;2023-03-24T05:39:31;13.40;99.90
22996;DHT22;11664;49.774;8.650;2023-03-24T05:42:03;13.30;99.90
22996;DHT22;11664;49.774;8.650;2023-03-24T05:44:34;13.30;99.90
22996;DHT22;11664;49.774;8.650;2023-03-24T05:47:06;13.30;99.90
22996;DHT22;11664;49.774;8.650;2023-03-24T05:49:32;13.20;99.90
22996;DHT22;11664;49.774;8.650;2023-03-24T05:52:00;13.20;99.90
22996;DHT22;11664;49.774;8.650;2023-03-24T05:54:26;13.20;99.90
22996;DHT22;11664;49.774;8.650;2023-03-24T05:56:52;13.30;99.90
22996;DHT22;11664;49.774;8.650;2023-03-24T05:59:28;13.30;99.90
22996;DHT22;11664;49.774;8.650;2023-03-24T06:01:56;13.30;99.90
22996;DHT22;11664;49.774;8.650;2023-03-24T06:04:32;13.30;99.90
22996;DHT22;11664;49.774;8.650;2023-03-24T06:07:03;13.30;99.90
22996;DHT22;11664;49.774;8.650;2023-03-24T06:09:30;13.30;99.90
22996;DHT22;11664;49.774;8.650;2023-03-24T06:12:16;13.30;99.90
22996;DHT22;11664;49.774;8.650;2023-03-24T06:14:48;13.40;99.90
22996;DHT22;11664;49.774;8.650;2023-03-24T06:17:23;13.40;99.90
22996;DHT22;11664;49.774;8.650;2023-03-24T06:19:52;13.40;99.90
22996;DHT22;11664;49.774;8.650;2023-03-24T06:22:18;13.50;99.90
22996;DHT22;11664;49.774;8.650;2023-03-24T06:24:47;13.50;99.90
22996;DHT22;11664;49.774;8.650;2023-03-24T06:27:17;13.60;99.90
22996;DHT22;11664;49.774;8.650;2023-03-24T06:29:47;13.60;99.90
22996;DHT22;11664;49.774;8.650;2023-03-24T06:32:19;13.60;99.90
22996;DHT22;11664;49.774;8.650;2023-03-24T06:34:48;13.60;99.90
22996;DHT22;11664;49.774;8.650;2023-03-24T06:37:38;13.60;99.90
22996;DHT22;11664;49.774;8.650;2023-03-24T06:40:04;13.60;99.90
22996;DHT22;11664;49.774;8.650;2023-03-24T06:42:35;13.60;99.90
22996;DHT22;11664;49.774;8.650;2023-03-24T06:45:00;13.60;99.90
22996;DHT22;11664;49.774;8.650;2023-03-24T06:47:33;13.60;99.90
22996;DHT22;11664;49.774;8.650;2023-03-24T06:50:11;13.60;99.90
22996;DHT22;11664;49.774;8.650;2023-03-24T06:52:46;13.70;99.90
22996;DHT22;11664;49.774;8.650;2023-03-24T06:55:11;13.70;99.90
22996;DHT22;11664;49.774;8.650;2023-03-24T06:57:40;13.70;99.90
22996;DHT22;11664;49.774;8.650;2023-03-24T07:00:07;13.80;99.90
22996;DHT22;11664;49.774;8.650;2023-03-24T07:02:42;13.70;99.90
22996;DHT22;11664;49.774;8.650;2023-03-24T07:05:08;13.80;99.90
22996;DHT22;11664;49.774;8.650;2023-03-24T07:07:41;13.80;99.90
22996;DHT22;11664;49.774;8.650;2023-03-24T07:10:13;13.80;99.90
22996;DHT22;11664;49.774;8.650;2023-03-24T07:12:45;13.80;99.90
22996;DHT22;11664;49.774;8.650;2023-03-24T07:15:11;13.80;99.90
22996;DHT22;11664;49.774;8.650;2023-03-24T07:17:37;13.80;99.90
22996;DHT22;11664;49.774;8.650;2023-03-24T07:20:06;13.90;99.90
22996;DHT22;11664;49.774;8.650;2023-03-24T07:22:33;13.90;99.90
22996;DHT22;11664;49.774;8.650;2023-03-24T07:25:01;14.00;99.90
22996;DHT22;11664;49.774;8.650;2023-03-24T07:27:29;14.00;99.90
22996;DHT22;11664;49.774;8.650;2023-03-24T07:30:03;13.90;99.90
22996;DHT22;11664;49.774;8.650;2023-03-24T07:32:38;13.90;99.90
22996;DHT22;11664;49.774;8.650;2023-03-24T07:35:11;13.90;99.90
22996;DHT22;11664;49.774;8.650;2023-03-24T07:37:43;13.80;99.90
22996;DHT22;11664;49.774;8.650;2023-03-24T07:40:10;13.80;99.90
22996;DHT22;11664;49.774;8.650;2023-03-24T07:42:43;13.80;99.90
22996;DHT22;11664;49.774;8.650;2023-03-24T07:45:12;13.70;99.90
22996;DHT22;11664;49.774;8.650;2023-03-24T07:47:49;13.70;99.90
22996;DHT22;11664;49.774;8.650;2023-03-24T07:50:18;13.70;99.90
22996;DHT22;11664;49.774;8.650;2023-03-24T07:52:56;13.70;99.90
22996;DHT22;11664;49.774;8.650;2023-03-24T07:55:22;13.70;99.90
22996;DHT22;11664;49.774;8.650;2023-03-24T07:57:48;13.70;99.90
22996;DHT22;11664;49.774;8.650;2023-03-24T08:00:18;13.80;99.90
22996;DHT22;11664;49.774;8.650;2023-03-24T08:05:58;13.80;99.90
22996;DHT22;11664;49.774;8.650;2023-03-24T08:08:43;13.80;99.90
22996;DHT22;11664;49.774;8.650;2023-03-24T08:11:08;13.80;99.90
22996;DHT22;11664;49.774;8.650;2023-03-24T08:13:36;13.80;99.90
22996;DHT22;11664;49.774;8.650;2023-03-24T08:16:07;13.80;99.90
22996;DHT22;11664;49.774;8.650;2023-03-24T08:18:33;13.80;99.90
22996;DHT22;11664;49.774;8.650;2023-03-24T08:21:08;13.80;99.90
22996;DHT22;11664;49.774;8.650;2023-03-24T08:23:40;13.70;99.90
22996;DHT22;11664;49.774;8.650;2023-03-24T08:26:08;13.70;99.90
22996;DHT22;11664;49.774;8.650;2023-03-24T08:28:43;13.70;99.90
22996;DHT22;11664;49.774;8.650;2023-03-24T08:31:11;13.60;99.90
22996;DHT22;11664;49.774;8.650;2023-03-24T08:33:37;13.50;99.90
22996;DHT22;11664;49.774;8.650;2023-03-24T08:36:06;13.40;99.90
22996;DHT22;11664;49.774;8.650;2023-03-24T08:38:33;13.30;99.90
22996;DHT22;11664;49.774;8.650;2023-03-24T08:41:05;13.40;99.90
22996;DHT22;11664;49.774;8.650;2023-03-24T08:43:54;13.30;99.90
22996;DHT22;11664;49.774;8.650;2023-03-24T08:46:20;13.30;99.90
22996;DHT22;11664;49.774;8.650;2023-03-24T08:48:45;13.40;99.90
22996;DHT22;11664;49.774;8.650;2023-03-24T08:51:14;13.40;99.90
22996;DHT22;11664;49.774;8.650;2023-03-24T08:53:43;13.40;99.90
22996;DHT22;11664;49.774;8.650;2023-03-24T08:56:18;13.40;99.90
22996;DHT22;11664;49.774;8.650;2023-03-24T08:58:50;13.40;99.90
22996;DHT22;11664;49.774;8.650;2023-03-24T09:01:18;13.50;99.90
22996;DHT22;11664;49.774;8.650;2023-03-24T09:03:48;13.50;99.90
22996;DHT22;11664;49.774;8.650;2023-03-24T09:06:19;13.40;99.90
22996;DHT22;11664;49.774;8.650;2023-03-24T09:08:48;13.50;99.90
22996;DHT22;11664;49.774;8.650;2023-03-24T09:11:20;13.40;99.90
22996;DHT22;11664;49.774;8.650;2023-03-24T09:13:49;13.40;99.90
22996;DHT22;11664;49.774;8.650;2023-03-24T09:16:15;13.40;99.90
22996;DHT22;11664;49.774;8.650;2023-03-24T09:18:47;13.40;99.90
22996;DHT22;11664;49.774;8.650;2023-03-24T09:21:25;13.50;99.90
22996;DHT22;11664;49.774;8.650;2023-03-24T09:24:06;13.40;99.90
22996;DHT22;11664;49.774;8.650;2023-03-24T09:26:41;13.50;99.90
22996;DHT22;11664;49.774;8.650;2023-03-24T09:29:10;13.50;99.90
22996;DHT22;11664;49.774;8.650;2023-03-24T09:31:38;13.40;99.90
22996;DHT22;11664;49.774;8.650;2023-03-24T09:34:07;13.40;99.90
22996;DHT22;11664;49.774;8.650;2023-03-24T09:36:51;13.40;99.90
22996;DHT22;11664;49.774;8.650;2023-03-24T09:39:22;13.40;99.90
22996;DHT22;11664;49.774;8.650;2023-03-24T09:41:50;13.40;99.90
22996;DHT22;11664;49.774;8.650;2023-03-24T09:44:45;13.40;99.90
22996;DHT22;11664;49.774;8.650;2023-03-24T09:47:21;13.30;99.90
22996;DHT22;11664;49.774;8.650;2023-03-24T09:49:51;13.30;99.90
22996;DHT22;11664;49.774;8.650;2023-03-24T09:52:28;13.30;99.90
22996;DHT22;11664;49.774;8.650;2023-03-24T09:54:59;13.30;99.90
22996;DHT22;11664;49.774;8.650;2023-03-24T09:57:47;13.40;99.90
22996;DHT22;11664;49.774;8.650;2023-03-24T10:00:29;13.40;99.90
22996;DHT22;11664;49.774;8.650;2023-03-24T10:03:23;13.40;99.90
22996;DHT22;11664;49.774;8.650;2023-03-24T10:08:57;13.40;99.90
22996;DHT22;11664;49.774;8.650;2023-03-24T10:11:51;13.40;99.90
22996;DHT22;11664;49.774;8.650;2023-03-24T10:20:58;13.40;99.90
22996;DHT22;11664;49.774;8.650;2023-03-24T10:23:40;13.40;99.90
22996;DHT22;11664;49.774;8.650;2023-03-24T10:29:34;13.40;99.90
22996;DHT22;11664;49.774;8.650;2023-03-24T10:32:17;13.40;99.90
22996;DHT22;11664;49.774;8.650;2023-03-24T10:34:53;13.40;99.90
22996;DHT22;11664;49.774;8.650;2023-03-24T10:37:21;13.30;99.90
22996;DHT22;11664;49.774;8.650;2023-03-24T10:39:46;13.20;99.90
22996;DHT22;11664;49.774;8.650;2023-03-24T10:42:18;13.10;99.90
22996;DHT22;11664;49.774;8.650;2023-03-24T10:44:51;12.90;99.90
22996;DHT22;11664;49.774;8.650;2023-03-24T10:47:30;12.70;99.90
22996;DHT22;11664;49.774;8.650;2023-03-24T10:50:12;12.50;99.90
22996;DHT22;11664;49.774;8.650;2023-03-24T10:52:51;12.50;99.90
22996;DHT22;11664;49.774;8.650;2023-03-24T10:55:22;12.50;99.90
22996;DHT22;11664;49.774;8.650;2023-03-24T11:00:44;12.40;99.90
22996;DHT22;11664;49.774;8.650;2023-03-24T11:06:22;12.40;99.90
22996;DHT22;11664;49.774;8.650;2023-03-24T11:09:19;12.40;99.90
22996;DHT22;11664;49.774;8.650;2023-03-24T11:11:51;12.40;99.90
22996;DHT22;11664;49.774;8.650;2023-03-24T11:14:27;12.40;99.90
22996;DHT22;11664;49.774;8.650;2023-03-24T11:17:17;12.30;99.90
22996;DHT22;11664;49.774;8.650;2023-03-24T11:19:57;12.30;99.90
22996;DHT22;11664;49.774;8.650;2023-03-24T11:22:22;12.40;99.90
22996;DHT22;11664;49.774;8.650;2023-03-24T11:24:54;12.50;99.90
22996;DHT22;11664;49.774;8.650;2023-03-24T11:27:20;12.60;99.90
22996;DHT22;11664;49.774;8.650;2023-03-24T11:29:53;12.70;99.90
22996;DHT22;11664;49.774;8.650;2023-03-24T11:32:26;12.90;99.90
22996;DHT22;11664;49.774;8.650;2023-03-24T11:35:15;13.20;99.90
22996;DHT22;11664;49.774;8.650;2023-03-24T11:38:03;13.40;99.90
22996;DHT22;11664;49.774;8.650;2023-03-24T11:40:36;13.50;99.90
22996;DHT22;11664;49.774;8.650;2023-03-24T11:43:18;13.50;99.90
22996;DHT22;11664;49.774;8.650;2023-03-24T11:48:52;13.60;99.90
22996;DHT22;11664;49.774;8.650;2023-03-24T11:51:34;13.50;99.90
22996;DHT22;11664;49.774;8.650;2023-03-24T11:54:13;13.50;99.90
22996;DHT22;11664;49.774;8.650;2023-03-24T11:56:45;13.50;99.90
22996;DHT22;11664;49.774;8.650;2023-03-24T11:59:36;13.60;99.90
22996;DHT22;11664;49.774;8.650;2023-03-24T12:02:19;13.70;99.90
22996;DHT22;11664;49.774;8.650;2023-03-24T12:08:05;14.00;99.90
22996;DHT22;11664;49.774;8.650;2023-03-24T12:13:55;14.10;99.90
22996;DHT22;11664;49.774;8.650;2023-03-24T12:19:24;14.00;99.90
22996;DHT22;11664;49.774;8.650;2023-03-24T12:28:08;13.90;99.90
22996;DHT22;11664;49.774;8.650;2023-03-24T12:33:44;14.00;99.90
22996;DHT22;11664;49.774;8.650;2023-03-24T12:45:36;14.40;99.90
22996;DHT22;11664;49.774;8.650;2023-03-24T12:57:11;15.70;99.90
22996;DHT22;11664;49.774;8.650;2023-03-24T12:59:44;15.70;99.90
22996;DHT22;11664;49.774;8.650;2023-03-24T13:02:31;15.60;99.90
22996;DHT22;11664;49.774;8.650;2023-03-24T13:08:12;15.50;99.90
22996;DHT22;11664;49.774;8.650;2023-03-24T13:10:49;15.30;99.90
22996;DHT22;11664;49.774;8.650;2023-03-24T13:13:30;15.30;99.90
22996;DHT22;11664;49.774;8.650;2023-03-24T13:16:01;15.30;99.90
22996;DHT22;11664;49.774;8.650;2023-03-24T13:18:45;15.30;99.90
22996;DHT22;11664;49.774;8.650;2023-03-24T13:24:21;15.70;99.90
22996;DHT22;11664;49.774;8.650;2023-03-24T13:27:08;15.70;99.90
22996;DHT22;11664;49.774;8.650;2023-03-24T13:32:49;15.70;99.90
22996;DHT22;11664;49.774;8.650;2023-03-24T13:35:37;16.00;99.90
22996;DHT22;11664;49.774;8.650;2023-03-24T13:41:32;16.70;99.90
22996;DHT22;11664;49.774;8.650;2023-03-24T13:47:15;17.40;99.90
22996;DHT22;11664;49.774;8.650;2023-03-24T13:50:01;17.50;99.90
22996;DHT22;11664;49.774;8.650;2023-03-24T13:52:39;17.20;99.90
22996;DHT22;11664;49.774;8.650;2023-03-24T13:55:22;16.70;99.90
22996;DHT22;11664;49.774;8.650;2023-03-24T13:57:59;16.50;99.90
22996;DHT22;11664;49.774;8.650;2023-03-24T14:00:31;16.60;99.90
22996;DHT22;11664;49.774;8.650;2023-03-24T14:06:04;16.60;99.90
22996;DHT22;11664;49.774;8.650;2023-03-24T14:14:14;17.20;99.90
22996;DHT22;11664;49.774;8.650;2023-03-24T14:17:18;17.80;99.90
22996;DHT22;11664;49.774;8.650;2023-03-24T14:22:45;18.90;99.90
22996;DHT22;11664;49.774;8.650;2023-03-24T14:25:32;18.90;99.90
22996;DHT22;11664;49.774;8.650;2023-03-24T14:36:24;20.30;99.90
22996;DHT22;11664;49.774;8.650;2023-03-24T14:38:50;20.30;98.80
22996;DHT22;11664;49.774;8.650;2023-03-24T14:41:35;20.30;99.10
22996;DHT22;11664;49.774;8.650;2023-03-24T14:44:09;20.60;98.00
22996;DHT22;11664;49.774;8.650;2023-03-24T14:46:41;20.80;95.50
22996;DHT22;11664;49.774;8.650;2023-03-24T14:49:27;20.20;96.60
22996;DHT22;11664;49.774;8.650;2023-03-24T14:52:15;19.40;98.30
22996;DHT22;11664;49.774;8.650;2023-03-24T14:55:11;19.00;99.90
22996;DHT22;11664;49.774;8.650;2023-03-24T14:57:52;18.40;99.90
22996;DHT22;11664;49.774;8.650;2023-03-24T15:00:43;18.10;99.90
22996;DHT22;11664;49.774;8.650;2023-03-24T15:05:50;18.90;98.40
22996;DHT22;11664;49.774;8.650;2023-03-24T15:08:22;19.10;98.40
22996;DHT22;11664;49.774;8.650;2023-03-24T15:10:51;19.60;97.40
22996;DHT22;11664;49.774;8.650;2023-03-24T15:13:38;20.30;95.40
22996;DHT22;11664;49.774;8.650;2023-03-24T15:19:03;20.10;92.40
22996;DHT22;11664;49.774;8.650;2023-03-24T15:21:38;19.30;91.90
22996;DHT22;11664;49.774;8.650;2023-03-24T15:27:16;18.50;91.70
22996;DHT22;11664;49.774;8.650;2023-03-24T15:29:53;19.00;93.00
22996;DHT22;11664;49.774;8.650;2023-03-24T15:32:24;19.40;91.80
22996;DHT22;11664;49.774;8.650;2023-03-24T15:35:05;19.60;91.40
22996;DHT22;11664;49.774;8.650;2023-03-24T15:37:39;20.10;90.80
22996;DHT22;11664;49.774;8.650;2023-03-24T15:43:00;21.10;85.30
22996;DHT22;11664;49.774;8.650;2023-03-24T15:45:32;21.30;83.10
22996;DHT22;11664;49.774;8.650;2023-03-24T15:48:11;21.50;83.80
22996;DHT22;11664;49.774;8.650;2023-03-24T15:50:58;21.30;82.60
22996;DHT22;11664;49.774;8.650;2023-03-24T15:53:43;21.10;83.30
22996;DHT22;11664;49.774;8.650;2023-03-24T15:56:32;21.00;80.70
22996;DHT22;11664;49.774;8.650;2023-03-24T16:01:36;20.70;84.10
22996;DHT22;11664;49.774;8.650;2023-03-24T16:04:10;20.70;84.20
22996;DHT22;11664;49.774;8.650;2023-03-24T16:06:41;20.30;84.10
22996;DHT22;11664;49.774;8.650;2023-03-24T16:09:13;20.10;85.10
22996;DHT22;11664;49.774;8.650;2023-03-24T16:11:39;20.20;85.10
22996;DHT22;11664;49.774;8.650;2023-03-24T16:17:08;19.90;84.60
22996;DHT22;11664;49.774;8.650;2023-03-24T16:19:37;19.60;86.20
22996;DHT22;11664;49.774;8.650;2023-03-24T16:22:09;19.30;87.90
22996;DHT22;11664;49.774;8.650;2023-03-24T16:24:50;19.20;86.00
22996;DHT22;11664;49.774;8.650;2023-03-24T16:27:22;19.00;87.90
22996;DHT22;11664;49.774;8.650;2023-03-24T16:29:48;19.00;89.40
22996;DHT22;11664;49.774;8.650;2023-03-24T16:32:13;19.10;88.20
22996;DHT22;11664;49.774;8.650;2023-03-24T16:34:39;18.80;88.20
22996;DHT22;11664;49.774;8.650;2023-03-24T16:37:05;18.40;90.10
22996;DHT22;11664;49.774;8.650;2023-03-24T16:39:32;18.00;91.30
22996;DHT22;11664;49.774;8.650;2023-03-24T16:41:57;17.60;91.80
22996;DHT22;11664;49.774;8.650;2023-03-24T16:44:26;17.30;92.80
22996;DHT22;11664;49.774;8.650;2023-03-24T16:46:54;17.10;92.50
22996;DHT22;11664;49.774;8.650;2023-03-24T16:49:21;16.90;92.70
22996;DHT22;11664;49.774;8.650;2023-03-24T16:51:47;16.70;93.70
22996;DHT22;11664;49.774;8.650;2023-03-24T16:54:19;16.50;93.90
22996;DHT22;11664;49.774;8.650;2023-03-24T16:56:51;16.30;94.70
22996;DHT22;11664;49.774;8.650;2023-03-24T16:59:16;16.20;95.90
22996;DHT22;11664;49.774;8.650;2023-03-24T17:01:47;16.10;97.00
22996;DHT22;11664;49.774;8.650;2023-03-24T17:04:24;16.00;97.40
22996;DHT22;11664;49.774;8.650;2023-03-24T17:06:51;16.00;98.30
22996;DHT22;11664;49.774;8.650;2023-03-24T17:09:21;15.90;98.60
22996;DHT22;11664;49.774;8.650;2023-03-24T17:11:49;15.80;98.80
22996;DHT22;11664;49.774;8.650;2023-03-24T17:14:22;15.80;99.80
22996;DHT22;11664;49.774;8.650;2023-03-24T17:16:47;15.70;99.90
22996;DHT22;11664;49.774;8.650;2023-03-24T17:19:18;15.70;99.90
22996;DHT22;11664;49.774;8.650;2023-03-24T17:22:00;15.50;99.90
22996;DHT22;11664;49.774;8.650;2023-03-24T17:24:32;15.50;99.90
22996;DHT22;11664;49.774;8.650;2023-03-24T17:27:15;15.40;99.90
22996;DHT22;11664;49.774;8.650;2023-03-24T17:29:49;15.30;99.90
22996;DHT22;11664;49.774;8.650;2023-03-24T17:32:14;15.20;99.90
22996;DHT22;11664;49.774;8.650;2023-03-24T17:34:46;15.20;99.90
22996;DHT22;11664;49.774;8.650;2023-03-24T17:37:24;15.10;99.90
22996;DHT22;11664;49.774;8.650;2023-03-24T17:39:50;15.00;99.90
22996;DHT22;11664;49.774;8.650;2023-03-24T17:42:35;15.00;99.90
22996;DHT22;11664;49.774;8.650;2023-03-24T17:45:04;14.90;99.90
22996;DHT22;11664;49.774;8.650;2023-03-24T17:47:39;14.90;99.90
22996;DHT22;11664;49.774;8.650;2023-03-24T17:50:06;14.80;99.90
22996;DHT22;11664;49.774;8.650;2023-03-24T17:53:03;14.70;99.90
22996;DHT22;11664;49.774;8.650;2023-03-24T17:55:28;14.60;99.90
22996;DHT22;11664;49.774;8.650;2023-03-24T17:57:54;14.50;99.90
22996;DHT22;11664;49.774;8.650;2023-03-24T18:00:26;14.50;99.90
22996;DHT22;11664;49.774;8.650;2023-03-24T18:03:00;14.40;99.90
22996;DHT22;11664;49.774;8.650;2023-03-24T18:05:29;14.30;99.90
22996;DHT22;11664;49.774;8.650;2023-03-24T18:07:55;14.30;99.90
22996;DHT22;11664;49.774;8.650;2023-03-24T18:10:26;14.30;99.90
22996;DHT22;11664;49.774;8.650;2023-03-24T18:12:53;14.30;99.90
22996;DHT22;11664;49.774;8.650;2023-03-24T18:15:25;14.20;99.90
22996;DHT22;11664;49.774;8.650;2023-03-24T18:17:50;14.20;99.90
22996;DHT22;11664;49.774;8.650;2023-03-24T18:20:22;14.10;99.90
22996;DHT22;11664;49.774;8.650;2023-03-24T18:22:50;14.00;99.90
22996;DHT22;11664;49.774;8.650;2023-03-24T18:25:16;13.80;99.90
22996;DHT22;11664;49.774;8.650;2023-03-24T18:27:42;13.70;99.90
22996;DHT22;11664;49.774;8.650;2023-03-24T18:30:09;13.60;99.90
22996;DHT22;11664;49.774;8.650;2023-03-24T18:32:36;13.50;99.90
22996;DHT22;11664;49.774;8.650;2023-03-24T18:35:07;13.40;99.90
22996;DHT22;11664;49.774;8.650;2023-03-24T18:37:33;13.30;99.90
22996;DHT22;11664;49.774;8.650;2023-03-24T18:40:11;13.30;99.90
22996;DHT22;11664;49.774;8.650;2023-03-24T18:42:37;13.30;99.90
22996;DHT22;11664;49.774;8.650;2023-03-24T18:45:06;13.20;99.90
22996;DHT22;11664;49.774;8.650;2023-03-24T18:47:32;13.10;99.90
22996;DHT22;11664;49.774;8.650;2023-03-24T18:49:58;13.00;99.90
22996;DHT22;11664;49.774;8.650;2023-03-24T18:52:23;13.00;99.90
22996;DHT22;11664;49.774;8.650;2023-03-24T18:54:52;12.90;99.90
22996;DHT22;11664;49.774;8.650;2023-03-24T18:57:18;12.90;99.90
22996;DHT22;11664;49.774;8.650;2023-03-24T18:59:48;12.80;99.90
22996;DHT22;11664;49.774;8.650;2023-03-24T19:02:14;12.80;99.90
22996;DHT22;11664;49.774;8.650;2023-03-24T19:04:45;12.70;99.90